Pas de pilote en ligne...

Compagnie Fsx-France ! Un nouveau look pour votre VA, par : Julien & Co

 METAR ET TAF INFORMATION
METAR FOR LPPT
ADDS - METARS form results

(0452 UTC 27 January 2022)
Data provider http://aviationweather.gov/metar/data/
 
METAR text: LPPT 270430Z 05010KT CAVOK 11/05 Q1024
Conditions at: LPPT (LISBON/PORTELA , PT) observed 0430 UTC 27 January 2022
Temperature: 11.0°C (52°F)
Dewpoint: 5.0°C (41°F) [RH = 66%]
Pressure (altimeter): 30.24 inches Hg (1024.0 mb)
Winds: from the NE (50 degrees) at 12 MPH (10 knots; 5.1 m/s)
Visibility: 6 or more miles (10+ km)
Ceiling: ceiling and visibility are OK
Clouds: unknown
Weather: no significant weather observed at this time

METAR text: LPPT 270400Z 04008KT CAVOK 11/05 Q1024
Conditions at: LPPT (LISBON/PORTELA , PT) observed 0400 UTC 27 January 2022
Temperature: 11.0°C (52°F)
Dewpoint: 5.0°C (41°F) [RH = 66%]
Pressure (altimeter): 30.24 inches Hg (1024.0 mb)
Winds: from the NE (40 degrees) at 9 MPH (8 knots; 4.1 m/s)
Visibility: 6 or more miles (10+ km)
Ceiling: ceiling and visibility are OK
Clouds: unknown
Weather: no significant weather observed at this time

Forecast for: LPPT (LISBON/PORTELA , PT)
Text: TAF LPPT 262300Z 2700/2806 04010KT CAVOK
Forecast period: 0000 UTC 27 January 2022 to 0600 UTC 28 January 2022
Forecast type: FROM: standard forecast or significant change
Winds: from the NE (40 degrees) at 12 MPH (10 knots; 5.1 m/s)
Visibility: 6 or more miles (10+ km)
Ceiling: unknown
Clouds: missing
Weather: NSW  (no significant weather)

 AÉROPORT DE AÉROPORT

 INFORMATIONS DE PISTE
Piste 03 Longueur de la piste 3805 m = 12484 ft Largeur de la piste 45 m = 148 ft
Élévation de la piste 331 ft Seuil de la piste déplacés 296 ft Runway heading 22
Piste 21 Longueur de la piste 3805 m = 12484 ft Largeur de la piste 45 m = 148 ft
Élévation de la piste 347 ft Seuil de la piste déplacés 1969 ft Runway heading 202
Piste 17 Longueur de la piste 2400 m = 7874 ft Largeur de la piste 45 m = 148 ft
Élévation de la piste 374 ft Seuil de la piste déplacés 0 ft Runway heading 168
Piste 35 Longueur de la piste 2400 m = 7874 ft Largeur de la piste 45 m = 148 ft
Élévation de la piste 332 ft Seuil de la piste déplacés 492 ft Runway heading 348
 AÉROPORT FRÉQUENCES
Type APP Nom APP Féquence 119.1 MHZ
Type ATIS Nom ATIS Féquence 124.15 MHZ
Type CLD Nom CLD Féquence 118.95 MHZ
Type GND Nom GND Féquence 121.75 MHZ
Type INFO Nom INFO Féquence 123.75 MHZ
Type RDO Nom RDO Féquence 127.9 MHZ
Type TWR Nom TWR Féquence 118.1 MHZ

 AIDES A LA NAVIGATION
Type NDB Nom Caparica Féquence 389 KHZ
Type NDB Nom Arruda Féquence 382 KHZ
Type VOR-DME Nom Lisboa Féquence 114800 KHZ